createdAt,value
2023-10-21T00:02:30.318Z,65.24
2023-10-21T00:05:32.814Z,65.91
2023-10-21T00:08:35.092Z,66.20
2023-10-21T00:11:37.321Z,65.98
2023-10-21T00:14:39.654Z,66.02
2023-10-21T00:17:42.460Z,65.98
2023-10-21T00:20:44.779Z,65.95
2023-10-21T00:23:47.136Z,65.76
2023-10-21T00:26:50.374Z,66.01
2023-10-21T00:29:52.729Z,66.25
2023-10-21T00:32:55.171Z,66.70
2023-10-21T00:35:57.549Z,66.82
2023-10-21T00:38:59.979Z,67.18
2023-10-21T00:42:06.488Z,66.91
2023-10-21T00:45:09.422Z,67.18
2023-10-21T00:48:12.015Z,67.13
2023-10-21T00:51:14.702Z,67.55
2023-10-21T00:54:18.175Z,67.50
2023-10-21T00:57:21.302Z,67.55
2023-10-21T01:00:23.794Z,67.61
2023-10-21T01:03:30.966Z,67.56
2023-10-21T01:06:34.076Z,67.96
2023-10-21T01:09:36.517Z,67.88
2023-10-21T01:12:39.058Z,68.14
2023-10-21T01:15:41.587Z,68.20
2023-10-21T01:18:44.270Z,68.35
2023-10-21T01:21:46.609Z,67.82
2023-10-21T01:24:48.869Z,67.67
2023-10-21T01:27:55.380Z,68.04
2023-10-21T01:30:58.228Z,67.47
2023-10-21T01:34:00.875Z,67.72
2023-10-21T01:37:03.226Z,67.44
2023-10-21T01:40:06.246Z,67.14
2023-10-21T01:43:08.566Z,67.13
2023-10-21T01:46:10.909Z,67.18
2023-10-21T01:49:13.154Z,67.32
2023-10-21T01:52:15.436Z,67.16
2023-10-21T01:55:18.116Z,67.55
2023-10-21T01:58:20.400Z,67.66
2023-10-21T02:01:22.736Z,67.23
2023-10-21T02:04:25.134Z,67.43
2023-10-21T02:07:27.348Z,67.22
2023-10-21T02:10:29.665Z,67.86
2023-10-21T02:13:32.036Z,67.20
2023-10-21T02:16:34.374Z,67.04
2023-10-21T02:19:36.839Z,67.66
2023-10-21T02:22:39.549Z,67.84
2023-10-21T02:25:42.693Z,67.84
2023-10-21T02:28:45.103Z,68.87
2023-10-21T02:31:56.548Z,69.69
2023-10-21T02:34:58.874Z,70.82
2023-10-21T02:38:01.554Z,71.19
2023-10-21T02:41:06.423Z,69.34
2023-10-21T02:44:08.680Z,68.58
2023-10-21T02:47:10.985Z,67.32
2023-10-21T02:50:13.302Z,66.82
2023-10-21T02:53:15.581Z,66.23
2023-10-21T02:56:18.372Z,65.52
2023-10-21T02:59:22.454Z,65.58
2023-10-21T03:02:24.912Z,65.42
2023-10-21T03:05:27.409Z,65.55
2023-10-21T03:08:29.747Z,66.26
2023-10-21T03:11:32.001Z,67.36
2023-10-21T03:14:34.317Z,66.70
2023-10-21T03:17:37.223Z,66.86
2023-10-21T03:20:40.918Z,67.23
2023-10-21T03:23:43.660Z,67.13
2023-10-21T03:26:45.929Z,68.33
2023-10-21T03:29:48.380Z,67.47
2023-10-21T03:32:50.712Z,67.42
2023-10-21T03:35:54.100Z,67.32
2023-10-21T03:38:58.045Z,67.84
2023-10-21T03:42:00.578Z,67.59
2023-10-21T03:45:03.425Z,67.59
2023-10-21T03:48:05.900Z,68.08
2023-10-21T03:51:12.473Z,68.51
2023-10-21T03:54:15.061Z,68.72
2023-10-21T03:57:17.578Z,68.97
2023-10-21T04:00:20.191Z,68.80
2023-10-21T04:03:22.589Z,71.94
2023-10-21T04:06:24.912Z,77.59
2023-10-21T04:09:28.226Z,80.20
2023-10-21T04:12:30.701Z,81.49
2023-10-21T04:15:33.755Z,82.51
2023-10-21T04:18:36.132Z,83.39
2023-10-21T04:21:38.372Z,84.86
2023-10-21T04:24:40.839Z,86.86
2023-10-21T04:27:43.547Z,88.06
2023-10-21T04:30:46.777Z,88.95
2023-10-21T04:33:50.549Z,89.76
2023-10-21T04:36:52.932Z,90.35
2023-10-21T04:39:55.135Z,90.65
2023-10-21T04:42:57.446Z,91.14
2023-10-21T04:45:59.703Z,91.04
2023-10-21T04:49:02.001Z,91.25
2023-10-21T04:52:05.138Z,91.12
2023-10-21T04:55:07.734Z,91.60
2023-10-21T04:58:09.939Z,92.76
2023-10-21T05:01:12.293Z,92.75
2023-10-21T05:04:14.708Z,92.27
2023-10-21T05:07:18.096Z,92.61
2023-10-21T05:10:21.122Z,93.81
2023-10-21T05:13:30.265Z,93.74
2023-10-21T05:16:32.915Z,93.59
2023-10-21T05:19:35.346Z,93.40
2023-10-21T05:22:37.576Z,92.03
2023-10-21T05:25:39.851Z,91.39
2023-10-21T05:28:42.049Z,90.24
2023-10-21T05:31:44.456Z,88.91
2023-10-21T05:34:46.729Z,87.87
2023-10-21T05:37:49.324Z,87.41
2023-10-21T05:40:51.768Z,86.46
2023-10-21T05:43:54.028Z,85.71
2023-10-21T05:46:56.275Z,83.63
2023-10-21T05:49:58.550Z,82.73
2023-10-21T05:53:00.822Z,81.74
2023-10-21T05:56:03.751Z,80.71
2023-10-21T05:59:06.081Z,80.86
2023-10-21T06:02:09.381Z,81.52
2023-10-21T06:05:11.740Z,81.97
2023-10-21T06:08:14.080Z,82.54
2023-10-21T06:11:16.398Z,82.69
2023-10-21T06:14:18.685Z,82.58
2023-10-21T06:17:21.459Z,82.09
2023-10-21T06:20:25.141Z,80.89
2023-10-21T06:23:27.401Z,80.54
2023-10-21T06:26:29.692Z,79.37
2023-10-21T06:29:31.937Z,79.47
2023-10-21T06:32:34.300Z,79.43
2023-10-21T06:35:39.865Z,79.63
2023-10-21T06:38:42.164Z,78.90
2023-10-21T06:41:44.803Z,79.28
2023-10-21T06:44:47.102Z,79.26
2023-10-21T06:47:49.509Z,80.00
2023-10-21T06:50:51.922Z,80.40
2023-10-21T06:53:54.224Z,80.37
2023-10-21T06:56:57.181Z,79.02
2023-10-21T07:00:00.773Z,77.66
2023-10-21T07:03:03.446Z,77.42
2023-10-21T07:06:06.579Z,76.63
2023-10-21T07:09:09.044Z,77.18
2023-10-21T07:12:13.404Z,77.74
2023-10-21T07:15:15.900Z,78.31
2023-10-21T07:18:18.217Z,78.44
2023-10-21T07:21:21.167Z,78.79
2023-10-21T07:24:23.529Z,78.97
2023-10-21T07:27:27.522Z,79.26
2023-10-21T07:30:30.877Z,79.90
2023-10-21T07:33:33.384Z,80.45
2023-10-21T07:36:35.836Z,80.05
2023-10-21T07:39:38.193Z,80.20
2023-10-21T07:42:40.510Z,80.20
2023-10-21T07:45:43.043Z,79.98
2023-10-21T07:48:45.626Z,80.60
2023-10-21T07:51:49.848Z,81.14
2023-10-21T07:54:54.353Z,81.18
2023-10-21T07:57:57.298Z,81.39
2023-10-21T08:00:59.644Z,82.18
2023-10-21T08:04:02.094Z,82.97
2023-10-21T08:07:04.751Z,83.69
2023-10-21T08:10:08.593Z,84.04
2023-10-21T08:13:11.118Z,83.66
2023-10-21T08:16:13.522Z,84.10
2023-10-21T08:19:15.953Z,84.25
2023-10-21T08:22:19.041Z,85.74
2023-10-21T08:25:21.652Z,86.25
2023-10-21T08:28:23.932Z,87.59
2023-10-21T08:31:26.809Z,87.96
2023-10-21T08:34:29.243Z,88.14
2023-10-21T08:37:31.469Z,88.32
2023-10-21T08:40:37.541Z,87.77
2023-10-21T08:43:46.248Z,88.27
2023-10-21T08:46:50.780Z,87.87
2023-10-21T08:49:54.513Z,87.38
2023-10-21T08:52:58.709Z,87.25
2023-10-21T08:56:00.980Z,87.48
2023-10-21T08:59:03.381Z,86.96
2023-10-21T09:02:06.517Z,86.11
2023-10-21T09:05:12.945Z,86.77
2023-10-21T09:08:16.585Z,86.63
2023-10-21T09:11:22.086Z,86.44
2023-10-21T09:14:24.422Z,86.42
2023-10-21T09:17:38.155Z,86.61
2023-10-21T09:20:40.483Z,86.87
2023-10-21T09:23:52.585Z,86.65
2023-10-21T09:26:54.884Z,86.99
2023-10-21T09:29:57.568Z,87.06
2023-10-21T09:33:06.999Z,87.12
2023-10-21T09:36:22.430Z,87.07
2023-10-21T09:39:31.699Z,86.96
2023-10-21T09:42:40.280Z,87.69
2023-10-21T09:45:45.626Z,88.58
2023-10-21T09:48:51.810Z,88.33
2023-10-21T09:52:03.462Z,89.59
2023-10-21T09:55:09.611Z,90.80
2023-10-21T09:58:13.406Z,92.73
2023-10-21T10:01:18.438Z,93.08
2023-10-21T10:04:22.746Z,91.87
2023-10-21T10:07:39.862Z,90.87
2023-10-21T10:10:44.499Z,91.41
2023-10-21T10:13:49.316Z,90.22
2023-10-21T10:16:52.733Z,91.59
2023-10-21T10:19:55.193Z,92.09
2023-10-21T10:23:01.575Z,91.93
2023-10-21T10:26:03.903Z,92.05
2023-10-21T10:29:19.550Z,92.28
2023-10-21T10:32:30.871Z,92.32
2023-10-21T10:35:41.594Z,92.50
2023-10-21T10:38:46.280Z,91.82
2023-10-21T10:41:50.330Z,91.78
2023-10-21T10:44:53.829Z,93.29
2023-10-21T10:48:01.391Z,88.79
2023-10-21T10:51:12.319Z,90.50
2023-10-21T10:54:19.397Z,88.96
2023-10-21T10:57:23.506Z,88.71
2023-10-21T11:00:27.279Z,88.59
2023-10-21T11:03:34.435Z,88.47
2023-10-21T11:06:41.119Z,86.68
2023-10-21T11:09:44.321Z,86.69
2023-10-21T11:12:48.835Z,87.11
2023-10-21T11:15:55.895Z,86.76
2023-10-21T11:18:59.233Z,86.65
2023-10-21T11:22:01.854Z,85.43
2023-10-21T11:25:05.090Z,86.58
2023-10-21T11:28:07.637Z,87.15
2023-10-21T11:31:11.063Z,86.24
2023-10-21T11:34:18.950Z,86.84
2023-10-21T11:37:21.264Z,86.88
2023-10-21T11:40:23.883Z,86.86
2023-10-21T11:43:28.967Z,87.08
2023-10-21T11:46:31.404Z,87.52
2023-10-21T11:49:34.978Z,88.22
2023-10-21T11:52:39.457Z,87.66
2023-10-21T11:55:51.433Z,87.95
2023-10-21T11:59:32.360Z,86.99
2023-10-21T12:02:53.143Z,87.62
2023-10-21T12:06:14.153Z,88.12
2023-10-21T12:09:25.637Z,88.29
2023-10-21T12:12:36.927Z,89.04
2023-10-21T12:15:42.140Z,88.87
2023-10-21T12:18:50.660Z,89.49
2023-10-21T12:22:11.318Z,89.36
2023-10-21T12:25:32.365Z,89.28
2023-10-21T12:28:34.581Z,88.94
2023-10-21T12:31:42.504Z,89.23
2023-10-21T12:34:51.594Z,88.89
2023-10-21T12:38:23.033Z,90.04
2023-10-21T12:41:28.503Z,90.37
2023-10-21T12:44:38.677Z,90.98
2023-10-21T12:47:44.615Z,91.61
2023-10-21T12:50:55.990Z,91.89
2023-10-21T12:54:13.474Z,92.97
2023-10-21T12:57:16.737Z,94.79
2023-10-21T13:00:21.949Z,94.35
2023-10-21T13:03:24.515Z,95.37
2023-10-21T13:06:26.941Z,94.79
2023-10-21T13:09:30.927Z,95.39
2023-10-21T13:12:33.400Z,96.92
2023-10-21T13:15:37.839Z,98.22
2023-10-21T13:18:41.304Z,98.70
2023-10-21T13:21:43.778Z,99.13
2023-10-21T13:24:48.878Z,99.19
2023-10-21T13:27:55.538Z,99.60
2023-10-21T13:30:59.394Z,99.37
2023-10-21T13:34:07.853Z,99.89
2023-10-21T13:37:10.124Z,99.71
2023-10-21T13:40:18.042Z,99.49
2023-10-21T13:43:20.368Z,99.42
2023-10-21T13:46:22.860Z,99.56
2023-10-21T13:49:26.246Z,99.52
2023-10-21T13:52:28.540Z,99.58
2023-10-21T13:55:31.786Z,99.17
2023-10-21T13:58:34.185Z,99.27
2023-10-21T14:01:36.532Z,99.13
2023-10-21T14:04:41.597Z,98.98
2023-10-21T14:07:44.151Z,98.68
2023-10-21T14:10:51.298Z,99.30
2023-10-21T14:13:54.582Z,99.27
2023-10-21T14:16:56.936Z,99.00
2023-10-21T14:20:00.354Z,98.74
2023-10-21T14:23:02.653Z,98.98
2023-10-21T14:26:05.146Z,99.07
2023-10-21T14:29:08.645Z,99.27
2023-10-21T14:32:12.259Z,98.69
2023-10-21T14:35:14.561Z,98.78
2023-10-21T14:38:17.890Z,99.81
2023-10-21T14:41:20.195Z,99.99
2023-10-21T14:44:22.410Z,99.99
2023-10-21T14:47:27.335Z,99.99
2023-10-21T14:50:30.800Z,99.99
2023-10-21T14:53:33.168Z,99.99
2023-10-21T14:56:35.732Z,99.99
2023-10-21T14:59:38.063Z,99.99
2023-10-21T15:02:40.298Z,99.99
2023-10-21T15:05:42.689Z,99.99
2023-10-21T15:08:45.019Z,99.99
2023-10-21T15:11:47.299Z,99.99
2023-10-21T15:14:59.303Z,99.99
2023-10-21T15:18:03.683Z,99.99
2023-10-21T15:21:07.450Z,99.99
2023-10-21T15:24:10.034Z,99.99
2023-10-21T15:27:12.923Z,99.99
2023-10-21T15:30:16.472Z,99.99
2023-10-21T15:33:18.765Z,99.99
2023-10-21T15:36:21.094Z,99.99
2023-10-21T15:39:23.424Z,99.99
2023-10-21T15:42:25.752Z,99.99
2023-10-21T15:45:28.003Z,99.99
2023-10-21T15:48:35.935Z,99.99
2023-10-21T15:51:39.217Z,99.99
2023-10-21T15:54:44.704Z,99.99
2023-10-21T15:57:53.923Z,99.99
2023-10-21T16:00:56.287Z,99.99
2023-10-21T16:03:59.064Z,99.99
2023-10-21T16:07:01.520Z,99.99
2023-10-21T16:10:04.009Z,99.99
2023-10-21T16:13:06.332Z,99.99
2023-10-21T16:16:10.126Z,99.99
2023-10-21T16:19:12.642Z,99.99
2023-10-21T16:22:14.858Z,99.99
2023-10-21T16:25:17.306Z,99.99
2023-10-21T16:28:19.534Z,99.99
2023-10-21T16:31:21.971Z,99.99
2023-10-21T16:34:24.415Z,99.99
2023-10-21T16:37:27.440Z,99.99
2023-10-21T16:40:29.753Z,99.99
2023-10-21T16:43:35.597Z,99.99
2023-10-21T16:46:41.915Z,99.99
2023-10-21T16:49:44.486Z,99.99
2023-10-21T16:52:47.005Z,99.99
2023-10-21T16:55:49.371Z,99.99
2023-10-21T16:58:51.584Z,99.99
2023-10-21T17:01:53.905Z,99.99
2023-10-21T17:04:56.124Z,99.99
2023-10-21T17:07:58.408Z,99.99
2023-10-21T17:11:01.297Z,99.99
2023-10-21T17:14:03.743Z,99.99
2023-10-21T17:17:05.956Z,99.99
2023-10-21T17:20:09.607Z,99.99
2023-10-21T17:23:11.906Z,99.99
2023-10-21T17:26:14.167Z,99.99
2023-10-21T17:29:16.369Z,99.99
2023-10-21T17:32:18.703Z,99.99
2023-10-21T17:35:23.746Z,99.99
2023-10-21T17:38:27.680Z,99.99
2023-10-21T17:41:29.929Z,99.99
2023-10-21T17:44:33.196Z,99.99
2023-10-21T17:47:35.632Z,99.99
2023-10-21T17:50:38.075Z,99.99
2023-10-21T17:53:40.290Z,99.99
2023-10-21T17:56:43.087Z,99.99
2023-10-21T17:59:45.322Z,99.99
2023-10-21T18:02:47.646Z,99.99
2023-10-21T18:05:49.882Z,99.99
2023-10-21T18:08:55.026Z,99.99
2023-10-21T18:11:57.566Z,99.99
2023-10-21T18:15:01.619Z,99.99
2023-10-21T18:18:05.090Z,99.99
2023-10-21T18:21:07.561Z,99.99
2023-10-21T18:24:10.600Z,99.99
2023-10-21T18:27:12.942Z,99.99
2023-10-21T18:30:15.341Z,99.99
2023-10-21T18:33:17.752Z,99.99
2023-10-21T18:36:20.121Z,99.99
2023-10-21T18:39:25.262Z,99.99
2023-10-21T18:42:27.513Z,99.99
2023-10-21T18:45:30.015Z,99.99
2023-10-21T18:48:32.317Z,99.99
2023-10-21T18:51:34.848Z,99.99
2023-10-21T18:54:37.178Z,99.99
2023-10-21T18:57:39.485Z,99.99
2023-10-21T19:00:41.895Z,99.99
2023-10-21T19:03:44.370Z,99.99
2023-10-21T19:06:46.646Z,99.99
2023-10-21T19:09:49.215Z,99.99
2023-10-21T19:12:54.688Z,99.99
2023-10-21T19:15:57.060Z,99.99
2023-10-21T19:18:59.707Z,99.99
2023-10-21T19:22:02.020Z,99.99
2023-10-21T19:25:05.432Z,99.99
2023-10-21T19:28:07.728Z,99.99
2023-10-21T19:31:15.217Z,99.99
2023-10-21T19:34:17.678Z,99.99
2023-10-21T19:37:20.292Z,99.99
2023-10-21T19:40:22.723Z,99.99
2023-10-21T19:43:24.936Z,99.99
2023-10-21T19:46:27.314Z,99.99
2023-10-21T19:49:31.725Z,99.99
2023-10-21T19:52:34.111Z,99.99
2023-10-21T19:55:36.848Z,99.99
2023-10-21T19:58:39.200Z,99.99
2023-10-21T20:01:41.507Z,99.99
2023-10-21T20:04:43.875Z,99.99
2023-10-21T20:07:46.697Z,99.99
2023-10-21T20:10:49.062Z,99.99
2023-10-21T20:13:51.380Z,99.99
2023-10-21T20:16:53.674Z,99.99
2023-10-21T20:19:58.329Z,99.99
2023-10-21T20:23:00.599Z,99.99
2023-10-21T20:26:08.227Z,99.99
2023-10-21T20:29:10.829Z,99.99
2023-10-21T20:32:13.096Z,99.99
2023-10-21T20:35:33.781Z,99.99
2023-10-21T20:38:38.789Z,99.99
2023-10-21T20:41:46.327Z,99.99
2023-10-21T20:44:49.071Z,99.99
2023-10-21T20:47:52.228Z,99.99
2023-10-21T20:50:54.609Z,99.99
2023-10-21T20:53:56.971Z,99.99
2023-10-21T20:56:59.307Z,99.99
2023-10-21T21:00:01.617Z,99.99
2023-10-21T21:03:05.065Z,99.99
2023-10-21T21:06:07.367Z,99.99
2023-10-21T21:09:11.132Z,99.99
2023-10-21T21:12:13.474Z,99.99
2023-10-21T21:15:15.775Z,99.99
2023-10-21T21:18:18.116Z,99.99
2023-10-21T21:21:20.401Z,99.99
2023-10-21T21:24:25.330Z,99.99
2023-10-21T21:27:29.227Z,99.99
2023-10-21T21:30:31.718Z,99.99
2023-10-21T21:33:33.985Z,99.99
2023-10-21T21:36:37.518Z,99.99
2023-10-21T21:39:39.935Z,99.99
2023-10-21T21:42:42.473Z,99.99
2023-10-21T21:45:44.923Z,99.99
2023-10-21T21:48:48.616Z,99.99
2023-10-21T21:51:51.893Z,99.99
2023-10-21T21:54:55.184Z,99.99
2023-10-21T21:57:57.612Z,99.99
2023-10-21T22:01:02.816Z,99.99
2023-10-21T22:04:05.231Z,99.99
2023-10-21T22:07:07.931Z,99.99
2023-10-21T22:10:10.496Z,99.99
2023-10-21T22:13:13.236Z,99.99
2023-10-21T22:16:15.613Z,99.99
2023-10-21T22:19:18.077Z,99.99
2023-10-21T22:22:21.285Z,99.99
2023-10-21T22:25:32.938Z,99.99
2023-10-21T22:28:35.282Z,99.99
2023-10-21T22:31:37.591Z,99.99
2023-10-21T22:34:40.248Z,99.99
2023-10-21T22:37:42.572Z,99.99
2023-10-21T22:40:46.442Z,99.99
2023-10-21T22:43:48.781Z,99.99
2023-10-21T22:46:51.332Z,99.99
2023-10-21T22:49:53.620Z,99.99
2023-10-21T22:52:55.930Z,99.99
2023-10-21T22:55:58.282Z,99.99
2023-10-21T22:59:00.509Z,99.99
2023-10-21T23:02:02.825Z,99.99
2023-10-21T23:05:08.225Z,99.99
2023-10-21T23:08:36.637Z,99.99
2023-10-21T23:11:38.980Z,99.99
2023-10-21T23:14:41.888Z,99.99
2023-10-21T23:17:45.467Z,99.99
2023-10-21T23:20:47.979Z,99.99
2023-10-21T23:23:50.332Z,99.99
2023-10-21T23:26:52.672Z,99.99
2023-10-21T23:29:54.920Z,99.99
2023-10-21T23:32:57.382Z,99.99
2023-10-21T23:36:07.553Z,99.99
2023-10-21T23:39:13.791Z,99.99
2023-10-21T23:42:17.875Z,99.99
2023-10-21T23:45:22.579Z,99.99
2023-10-21T23:48:24.868Z,99.99
2023-10-21T23:51:27.225Z,99.99
2023-10-21T23:54:29.479Z,99.99
2023-10-21T23:57:32.104Z,99.99
